createdAt,value
2022-09-04T00:05:47.137Z,12.45
2022-09-04T00:15:23.882Z,12.53
2022-09-04T00:25:00.901Z,12.22
2022-09-04T00:34:37.354Z,11.97
2022-09-04T00:44:14.489Z,11.91
2022-09-04T00:53:51.354Z,11.79
2022-09-04T01:03:28.542Z,11.51
2022-09-04T01:13:05.254Z,11.5
2022-09-04T01:22:42.099Z,11.34
2022-09-04T01:32:18.940Z,11.18
2022-09-04T01:41:56.019Z,10.94
2022-09-04T01:51:32.677Z,10.71
2022-09-04T02:01:09.630Z,10.73
2022-09-04T02:10:46.573Z,10.66
2022-09-04T02:20:23.945Z,11.13
2022-09-04T02:30:00.934Z,11.05
2022-09-04T02:39:38.199Z,10.72
2022-09-04T02:49:14.541Z,10.52
2022-09-04T02:58:51.764Z,10.61
2022-09-04T03:08:29.198Z,10.83
2022-09-04T03:18:06.575Z,11.01
2022-09-04T03:27:44.269Z,10.94
2022-09-04T03:37:21.224Z,10.7
2022-09-04T03:46:58.405Z,10.78
2022-09-04T03:56:35.841Z,11.1
2022-09-04T04:06:13.285Z,11.17
2022-09-04T04:15:50.939Z,11.21
2022-09-04T04:25:28.184Z,11.07
2022-09-04T04:35:05.277Z,10.78
2022-09-04T04:44:42.784Z,11.11
2022-09-04T04:54:20.333Z,11.18
2022-09-04T05:03:57.393Z,11.22
2022-09-04T05:13:34.918Z,11.42
2022-09-04T05:23:12.736Z,11.54
2022-09-04T05:32:50.650Z,11.55
2022-09-04T05:42:28.293Z,11.8
2022-09-04T05:52:06.134Z,12.09
2022-09-04T06:01:46.564Z,12.53
2022-09-04T06:11:21.881Z,12.56
2022-09-04T06:20:59.293Z,12.46
2022-09-04T06:30:36.660Z,12.44
2022-09-04T06:40:13.459Z,12.79
2022-09-04T06:49:50.864Z,13.06
2022-09-04T06:59:28.053Z,13.15
2022-09-04T07:09:05.670Z,13.2
2022-09-04T07:18:43.130Z,13.66
2022-09-04T07:28:20.980Z,14.2
2022-09-04T07:37:59.079Z,14.66
2022-09-04T07:47:37.124Z,15.13
2022-09-04T07:57:15.232Z,15.69
2022-09-04T08:06:52.941Z,16.21
2022-09-04T08:16:31.074Z,16.71
2022-09-04T08:26:09.016Z,17.15
2022-09-04T08:35:47.284Z,17.73
2022-09-04T08:45:25.922Z,18.33
2022-09-04T08:55:04.350Z,18.94
2022-09-04T09:04:42.684Z,19.45
2022-09-04T09:14:21.134Z,20.04
2022-09-04T09:23:59.922Z,20.61
2022-09-04T09:33:38.875Z,21.32
2022-09-04T09:43:17.557Z,21.88
2022-09-04T09:52:56.406Z,22.84
2022-09-04T10:02:40.183Z,24.47
2022-09-04T10:12:40.067Z,24.88
2022-09-04T10:22:26.115Z,26.5
2022-09-04T10:32:09.722Z,27.48
2022-09-04T10:41:52.240Z,27.8
2022-09-04T10:51:32.657Z,28.5
2022-09-04T11:01:13.550Z,29.34
2022-09-04T11:10:54.461Z,27.12
2022-09-04T11:20:32.216Z,28.97
2022-09-04T11:30:11.461Z,28.64
2022-09-04T11:39:53.320Z,29.93
2022-09-04T11:49:33.053Z,30.05
2022-09-04T11:59:13.884Z,31.12
2022-09-04T12:08:53.291Z,30.71
2022-09-04T12:18:33.914Z,31.96
2022-09-04T12:28:12.812Z,31.77
2022-09-04T12:37:51.604Z,30.09
2022-09-04T12:47:31.529Z,31.3
2022-09-04T12:57:09.663Z,31.32
2022-09-04T13:06:52.841Z,31.88
2022-09-04T13:16:24.576Z,28.26
2022-09-04T13:26:03.973Z,30.73
2022-09-04T13:35:43.907Z,32.54
2022-09-04T13:45:23.851Z,31.11
2022-09-04T13:54:49.983Z,30.41
2022-09-04T14:04:18.009Z,32.31
2022-09-04T14:13:59.509Z,33.14
2022-09-04T14:23:37.185Z,31.13
2022-09-04T14:33:19.104Z,33.15
2022-09-04T14:42:34.754Z,32.52
2022-09-04T14:52:12.777Z,30.94
2022-09-04T15:01:41.160Z,29.14
2022-09-04T15:11:14.453Z,27.93
2022-09-04T15:20:53.706Z,29.08
2022-09-04T15:30:25.236Z,28.54
2022-09-04T15:39:58.235Z,27.84
2022-09-04T15:49:34.590Z,27.95
2022-09-04T15:59:09.803Z,26.95
2022-09-04T16:08:45.278Z,26.27
2022-09-04T16:18:22.766Z,26.25
2022-09-04T16:27:59.047Z,25.42
2022-09-04T16:37:35.757Z,25.68
2022-09-04T16:47:13.637Z,25.62
2022-09-04T16:56:50.138Z,24.83
2022-09-04T17:06:26.782Z,24.4
2022-09-04T17:16:03.646Z,24.31
2022-09-04T17:28:54.883Z,24.02
2022-09-04T17:37:13.391Z,23.86
2022-09-04T17:44:54.657Z,23.37
2022-09-04T17:54:31.132Z,22.54
2022-09-04T18:04:20.195Z,22
2022-09-04T18:13:44.198Z,21.85
2022-09-04T18:23:20.519Z,21.41
2022-09-04T18:37:15.428Z,20.62
2022-09-04T18:52:10.723Z,19.97
2022-09-04T19:01:47.762Z,19.6
2022-09-04T19:11:24.685Z,19.54
2022-09-04T19:21:01.241Z,19.31
2022-09-04T19:30:38.321Z,19
2022-09-04T19:43:55.785Z,18.66
2022-09-04T19:51:24.228Z,18.44
2022-09-04T19:59:29.308Z,18.03
2022-09-04T20:09:05.977Z,17.82
2022-09-04T20:18:42.831Z,17.5
2022-09-04T20:28:19.914Z,17.39
2022-09-04T20:37:57.201Z,17.15
2022-09-04T20:52:48.347Z,17
2022-09-04T21:00:05.851Z,16.76
2022-09-04T21:06:47.788Z,16.64
2022-09-04T21:16:24.677Z,16.51
2022-09-04T21:26:01.646Z,16.37
2022-09-04T21:35:38.664Z,16.2
2022-09-04T21:45:15.816Z,15.95
2022-09-04T21:57:17.716Z,15.79
2022-09-04T22:04:29.493Z,15.8
2022-09-04T22:14:06.340Z,15.33
2022-09-04T22:23:43.417Z,15.19
2022-09-04T22:33:20.217Z,15.05
2022-09-04T22:42:57.059Z,14.88
2022-09-04T22:52:34.240Z,14.71
2022-09-04T23:02:13.278Z,14.45
2022-09-04T23:13:55.655Z,14.31
2022-09-04T23:25:49.034Z,14.17
2022-09-04T23:31:06.297Z,13.97
2022-09-04T23:40:39.016Z,13.79
2022-09-04T23:50:16.120Z,13.84
2022-09-04T23:59:53.393Z,13.81
